createdAt,value
2023-01-07T00:01:19.548Z,64.99
2023-01-07T00:03:53.087Z,65.16
2023-01-07T00:06:27.835Z,65.14
2023-01-07T00:09:00.153Z,65.12
2023-01-07T00:11:38.056Z,65.08
2023-01-07T00:14:11.630Z,65.09
2023-01-07T00:16:44.151Z,65.01
2023-01-07T00:19:17.200Z,64.88
2023-01-07T00:21:49.303Z,64.84
2023-01-07T00:24:21.221Z,64.78
2023-01-07T00:26:53.433Z,64.69
2023-01-07T00:29:25.724Z,64.64
2023-01-07T00:31:57.714Z,64.63
2023-01-07T00:34:29.653Z,64.70
2023-01-07T00:37:03.496Z,64.45
2023-01-07T00:39:35.524Z,64.40
2023-01-07T00:42:25.341Z,64.44
2023-01-07T00:44:57.442Z,64.46
2023-01-07T00:47:29.472Z,64.39
2023-01-07T00:50:01.613Z,64.45
2023-01-07T00:52:33.677Z,64.42
2023-01-07T00:55:05.976Z,64.46
2023-01-07T00:57:38.507Z,64.52
2023-01-07T01:00:15.349Z,64.57
2023-01-07T01:02:48.301Z,64.61
2023-01-07T01:05:21.551Z,64.82
2023-01-07T01:07:53.861Z,64.80
2023-01-07T01:10:28.104Z,64.86
2023-01-07T01:13:00.381Z,64.96
2023-01-07T01:15:32.749Z,65.05
2023-01-07T01:18:04.903Z,64.94
2023-01-07T01:20:36.823Z,64.78
2023-01-07T01:23:09.709Z,64.74
2023-01-07T01:25:41.680Z,64.65
2023-01-07T01:28:13.746Z,64.19
2023-01-07T01:30:45.941Z,64.12
2023-01-07T01:33:17.972Z,64.01
2023-01-07T01:35:50.107Z,64.11
2023-01-07T01:38:22.164Z,63.90
2023-01-07T01:40:54.067Z,64.04
2023-01-07T01:43:34.967Z,64.07
2023-01-07T01:46:19.074Z,64.04
2023-01-07T01:48:54.189Z,63.84
2023-01-07T01:51:28.659Z,63.92
2023-01-07T01:54:03.212Z,64.03
2023-01-07T01:56:38.253Z,64.18
2023-01-07T01:59:13.950Z,64.12
2023-01-07T02:01:47.069Z,64.12
2023-01-07T02:04:22.565Z,64.08
2023-01-07T02:06:57.749Z,64.12
2023-01-07T02:09:30.849Z,64.13
2023-01-07T02:12:06.124Z,64.24
2023-01-07T02:14:49.625Z,64.22
2023-01-07T02:17:32.978Z,64.33
2023-01-07T02:20:13.910Z,64.53
2023-01-07T02:23:05.269Z,64.64
2023-01-07T02:25:56.705Z,64.69
2023-01-07T02:28:46.517Z,64.82
2023-01-07T02:31:52.811Z,64.93
2023-01-07T02:34:30.239Z,64.90
2023-01-07T02:37:20.127Z,64.91
2023-01-07T02:40:01.246Z,64.83
2023-01-07T02:43:00.250Z,64.97
2023-01-07T02:45:44.264Z,65.00
2023-01-07T02:48:18.937Z,65.11
2023-01-07T02:50:51.347Z,65.13
2023-01-07T02:53:23.749Z,65.39
2023-01-07T02:55:59.412Z,65.42
2023-01-07T02:59:07.620Z,65.48
2023-01-07T03:01:54.456Z,65.23
2023-01-07T03:04:34.888Z,65.02
2023-01-07T03:07:09.738Z,65.00
2023-01-07T03:09:59.384Z,64.94
2023-01-07T03:12:55.769Z,65.01
2023-01-07T03:15:33.340Z,64.87
2023-01-07T03:18:08.391Z,64.70
2023-01-07T03:20:42.478Z,64.59
2023-01-07T03:23:17.347Z,64.53
2023-01-07T03:25:52.279Z,64.55
2023-01-07T03:28:27.421Z,64.59
2023-01-07T03:31:01.567Z,64.55
2023-01-07T03:33:55.220Z,64.52
2023-01-07T03:36:33.274Z,64.53
2023-01-07T03:39:07.916Z,64.60
2023-01-07T03:41:58.569Z,64.61
2023-01-07T03:44:30.604Z,64.81
2023-01-07T03:47:02.923Z,64.75
2023-01-07T03:49:34.727Z,64.75
2023-01-07T03:52:06.624Z,64.89
2023-01-07T03:54:38.645Z,64.75
2023-01-07T03:57:10.758Z,64.84
2023-01-07T03:59:42.742Z,64.87
2023-01-07T04:02:15.101Z,65.06
2023-01-07T04:04:47.914Z,65.04
2023-01-07T04:07:20.199Z,65.11
2023-01-07T04:09:52.091Z,65.14
2023-01-07T04:12:23.737Z,65.11
2023-01-07T04:14:56.591Z,65.12
2023-01-07T04:17:29.513Z,64.82
2023-01-07T04:20:03.205Z,64.74
2023-01-07T04:22:35.336Z,64.82
2023-01-07T04:25:07.738Z,64.85
2023-01-07T04:27:39.981Z,64.87
2023-01-07T04:30:12.973Z,64.78
2023-01-07T04:32:45.080Z,64.87
2023-01-07T04:35:17.353Z,64.98
2023-01-07T04:37:49.967Z,65.10
2023-01-07T04:40:21.974Z,65.15
2023-01-07T04:42:54.227Z,65.22
2023-01-07T04:45:27.068Z,65.29
2023-01-07T04:47:59.949Z,65.33
2023-01-07T04:50:32.258Z,65.42
2023-01-07T04:53:04.237Z,65.52
2023-01-07T04:55:37.119Z,65.46
2023-01-07T04:58:10.145Z,65.37
2023-01-07T05:00:42.376Z,65.44
2023-01-07T05:03:15.260Z,65.49
2023-01-07T05:05:47.894Z,65.51
2023-01-07T05:08:20.438Z,65.56
2023-01-07T05:10:53.974Z,65.44
2023-01-07T05:13:26.877Z,65.50
2023-01-07T05:15:58.067Z,65.49
2023-01-07T05:18:30.300Z,65.40
2023-01-07T05:21:02.592Z,64.92
2023-01-07T05:23:34.661Z,64.89
2023-01-07T05:26:07.834Z,64.85
2023-01-07T05:28:40.139Z,64.78
2023-01-07T05:31:12.669Z,64.77
2023-01-07T05:33:44.698Z,64.81
2023-01-07T05:36:17.021Z,64.83
2023-01-07T05:38:48.418Z,64.68
2023-01-07T05:41:20.095Z,64.63
2023-01-07T05:43:52.240Z,64.36
2023-01-07T05:46:24.256Z,64.43
2023-01-07T05:48:56.488Z,64.50
2023-01-07T05:51:28.619Z,64.44
2023-01-07T05:54:00.645Z,64.52
2023-01-07T05:56:32.800Z,64.59
2023-01-07T05:59:04.297Z,64.60
2023-01-07T06:01:35.909Z,64.85
2023-01-07T06:04:08.595Z,64.73
2023-01-07T06:06:40.551Z,64.76
2023-01-07T06:09:13.184Z,64.78
2023-01-07T06:11:46.095Z,64.82
2023-01-07T06:14:18.364Z,64.97
2023-01-07T06:16:49.633Z,65.03
2023-01-07T06:19:23.057Z,65.06
2023-01-07T06:21:55.233Z,64.56
2023-01-07T06:24:27.254Z,64.38
2023-01-07T06:26:59.584Z,64.16
2023-01-07T06:29:30.840Z,64.01
2023-01-07T06:32:02.751Z,63.96
2023-01-07T06:34:33.956Z,63.74
2023-01-07T06:37:05.529Z,63.70
2023-01-07T06:39:37.564Z,63.48
2023-01-07T06:42:09.760Z,63.50
2023-01-07T06:44:41.771Z,63.44
2023-01-07T06:47:13.752Z,63.40
2023-01-07T06:49:46.085Z,63.41
2023-01-07T06:52:17.261Z,63.48
2023-01-07T06:54:49.210Z,63.56
2023-01-07T06:57:20.529Z,63.40
2023-01-07T06:59:52.380Z,63.30
2023-01-07T07:02:27.565Z,63.17
2023-01-07T07:04:59.601Z,62.68
2023-01-07T07:07:33.571Z,62.54
2023-01-07T07:10:07.706Z,62.32
2023-01-07T07:12:40.585Z,62.42
2023-01-07T07:15:12.775Z,62.63
2023-01-07T07:17:44.211Z,62.49
2023-01-07T07:20:15.774Z,61.83
2023-01-07T07:22:48.758Z,61.30
2023-01-07T07:25:21.295Z,60.96
2023-01-07T07:27:52.475Z,61.15
2023-01-07T07:30:46.334Z,61.36
2023-01-07T07:32:59.708Z,60.94
2023-01-07T07:38:13.917Z,61.17
2023-01-07T07:40:46.223Z,61.37
2023-01-07T07:43:18.411Z,61.46
2023-01-07T07:45:50.447Z,61.27
2023-01-07T07:48:22.663Z,60.96
2023-01-07T07:50:55.015Z,60.28
2023-01-07T07:53:27.321Z,60.07
2023-01-07T07:55:59.430Z,60.10
2023-01-07T07:58:31.371Z,60.50
2023-01-07T08:01:03.613Z,60.67
2023-01-07T08:03:35.672Z,60.70
2023-01-07T08:06:08.326Z,60.78
2023-01-07T08:08:40.365Z,61.27
2023-01-07T08:11:12.746Z,60.63
2023-01-07T08:13:44.437Z,59.42
2023-01-07T08:16:16.202Z,58.77
2023-01-07T08:18:48.322Z,58.78
2023-01-07T08:21:20.579Z,59.11
2023-01-07T08:23:52.815Z,59.37
2023-01-07T08:26:24.878Z,59.46
2023-01-07T08:28:56.943Z,59.92
2023-01-07T08:31:29.403Z,59.68
2023-01-07T08:34:01.337Z,60.37
2023-01-07T08:36:33.925Z,59.68
2023-01-07T08:39:07.581Z,59.48
2023-01-07T08:41:39.695Z,58.73
2023-01-07T08:44:12.030Z,58.35
2023-01-07T08:46:44.453Z,58.40
2023-01-07T08:49:16.467Z,58.74
2023-01-07T08:51:48.557Z,59.33
2023-01-07T08:54:20.870Z,58.98
2023-01-07T08:56:53.061Z,58.02
2023-01-07T08:59:25.252Z,57.52
2023-01-07T09:01:57.532Z,57.72
2023-01-07T09:04:30.636Z,58.18
2023-01-07T09:07:02.851Z,58.42
2023-01-07T09:09:34.969Z,58.73
2023-01-07T09:12:10.724Z,59.00
2023-01-07T09:14:42.113Z,59.09
2023-01-07T09:17:14.309Z,59.17
2023-01-07T09:19:46.438Z,59.25
2023-01-07T09:22:18.418Z,58.80
2023-01-07T09:24:50.958Z,59.00
2023-01-07T09:27:23.223Z,59.00
2023-01-07T09:29:57.572Z,58.92
2023-01-07T09:32:30.318Z,58.77
2023-01-07T09:35:02.811Z,58.85
2023-01-07T09:37:34.824Z,58.85
2023-01-07T09:40:09.449Z,58.98
2023-01-07T09:43:09.143Z,58.55
2023-01-07T09:45:44.099Z,58.58
2023-01-07T09:48:19.443Z,58.79
2023-01-07T09:50:57.027Z,58.96
2023-01-07T09:53:40.835Z,58.87
2023-01-07T09:56:18.529Z,58.89
2023-01-07T09:58:50.654Z,58.90
2023-01-07T10:01:41.089Z,58.83
2023-01-07T10:04:16.315Z,58.98
2023-01-07T10:07:18.688Z,58.99
2023-01-07T10:10:14.660Z,58.99
2023-01-07T10:13:07.746Z,59.01
2023-01-07T10:16:00.875Z,58.85
2023-01-07T10:18:45.102Z,58.95
2023-01-07T10:21:20.070Z,58.88
2023-01-07T10:24:02.337Z,58.88
2023-01-07T10:26:40.116Z,58.99
2023-01-07T10:29:15.094Z,59.13
2023-01-07T10:31:49.731Z,58.97
2023-01-07T10:34:25.014Z,59.12
2023-01-07T10:37:05.521Z,59.32
2023-01-07T10:39:49.929Z,59.47
2023-01-07T10:42:41.459Z,59.58
2023-01-07T10:45:29.299Z,59.73
2023-01-07T10:48:23.800Z,59.92
2023-01-07T10:51:23.429Z,59.89
2023-01-07T10:54:14.762Z,59.87
2023-01-07T10:56:50.089Z,59.93
2023-01-07T10:59:23.741Z,59.96
2023-01-07T11:01:58.442Z,60.04
2023-01-07T11:04:30.742Z,60.08
2023-01-07T11:07:11.788Z,60.08
2023-01-07T11:09:46.298Z,59.98
2023-01-07T11:12:33.631Z,59.97
2023-01-07T11:15:08.885Z,60.08
2023-01-07T11:17:53.496Z,60.10
2023-01-07T11:20:57.284Z,60.15
2023-01-07T11:23:33.495Z,60.20
2023-01-07T11:26:14.384Z,60.22
2023-01-07T11:28:52.457Z,59.86
2023-01-07T11:31:44.461Z,59.49
2023-01-07T11:34:31.847Z,59.61
2023-01-07T11:37:05.237Z,59.84
2023-01-07T11:39:38.075Z,60.02
2023-01-07T11:42:38.517Z,60.17
2023-01-07T11:45:16.762Z,60.30
2023-01-07T11:48:07.617Z,60.41
2023-01-07T11:50:41.977Z,60.42
2023-01-07T11:53:20.239Z,60.40
2023-01-07T11:56:04.095Z,60.50
2023-01-07T11:58:39.218Z,60.57
2023-01-07T12:01:17.040Z,60.63
2023-01-07T12:03:54.964Z,60.50
2023-01-07T12:06:29.815Z,60.67
2023-01-07T12:09:25.739Z,60.72
2023-01-07T12:12:11.600Z,60.75
2023-01-07T12:14:47.534Z,60.70
2023-01-07T12:17:23.757Z,60.67
2023-01-07T12:20:01.999Z,60.84
2023-01-07T12:22:58.547Z,60.98
2023-01-07T12:25:49.983Z,61.01
2023-01-07T12:28:25.071Z,61.23
2023-01-07T12:31:09.405Z,61.29
2023-01-07T12:33:50.737Z,61.40
2023-01-07T12:36:42.333Z,61.40
2023-01-07T12:39:20.690Z,61.47
2023-01-07T12:42:02.375Z,61.52
2023-01-07T12:44:39.049Z,61.63
2023-01-07T12:47:31.559Z,61.63
2023-01-07T12:50:14.980Z,61.63
2023-01-07T12:52:54.102Z,61.80
2023-01-07T12:55:31.905Z,61.85
2023-01-07T12:58:07.126Z,61.93
2023-01-07T13:00:43.651Z,62.00
2023-01-07T13:03:31.555Z,61.98
2023-01-07T13:06:07.331Z,62.22
2023-01-07T13:08:57.218Z,62.23
2023-01-07T13:11:56.595Z,62.27
2023-01-07T13:14:34.639Z,62.33
2023-01-07T13:17:10.341Z,62.48
2023-01-07T13:19:43.281Z,62.51
2023-01-07T13:22:35.108Z,62.45
2023-01-07T13:25:39.043Z,62.64
2023-01-07T13:28:32.167Z,62.69
2023-01-07T13:31:19.456Z,62.84
2023-01-07T13:33:57.587Z,62.89
2023-01-07T13:36:48.058Z,62.75
2023-01-07T13:39:35.178Z,62.77
2023-01-07T13:42:18.949Z,62.78
2023-01-07T13:45:13.077Z,62.84
2023-01-07T13:47:53.583Z,62.92
2023-01-07T13:50:44.395Z,63.01
2023-01-07T13:53:19.300Z,62.91
2023-01-07T13:55:51.493Z,62.76
2023-01-07T13:58:55.667Z,62.67
2023-01-07T14:01:30.393Z,62.63
2023-01-07T14:04:08.432Z,62.69
2023-01-07T14:06:46.746Z,62.66
2023-01-07T14:09:25.954Z,62.74
2023-01-07T14:12:18.092Z,62.67
2023-01-07T14:15:15.762Z,62.77
2023-01-07T14:18:02.743Z,62.81
2023-01-07T14:20:37.740Z,62.66
2023-01-07T14:23:27.591Z,62.62
2023-01-07T14:26:11.806Z,62.58
2023-01-07T14:28:49.533Z,62.49
2023-01-07T14:31:27.774Z,62.44
2023-01-07T14:34:07.228Z,62.46
2023-01-07T14:37:09.154Z,62.59
2023-01-07T14:39:44.522Z,62.50
2023-01-07T14:42:28.883Z,61.87
2023-01-07T14:45:02.705Z,61.84
2023-01-07T14:47:46.564Z,62.05
2023-01-07T14:50:38.127Z,62.23
2023-01-07T14:53:25.153Z,62.39
2023-01-07T14:56:09.112Z,62.59
2023-01-07T14:58:56.512Z,62.58
2023-01-07T15:01:58.918Z,62.60
2023-01-07T15:04:55.050Z,62.60
2023-01-07T15:07:29.858Z,62.52
2023-01-07T15:10:40.224Z,62.57
2023-01-07T15:13:32.883Z,62.66
2023-01-07T15:16:10.028Z,62.69
2023-01-07T15:18:45.893Z,62.64
2023-01-07T15:21:55.234Z,62.53
2023-01-07T15:24:45.382Z,62.50
2023-01-07T15:27:36.723Z,62.38
2023-01-07T15:30:28.573Z,62.29
2023-01-07T15:33:19.980Z,61.80
2023-01-07T15:35:52.821Z,61.97
2023-01-07T15:38:30.794Z,61.94
2023-01-07T15:41:03.194Z,61.74
2023-01-07T15:43:38.061Z,61.82
2023-01-07T15:46:10.242Z,62.00
2023-01-07T15:48:42.508Z,61.96
2023-01-07T15:51:19.637Z,62.00
2023-01-07T15:53:57.706Z,61.71
2023-01-07T15:56:32.651Z,61.94
2023-01-07T15:59:07.821Z,61.96
2023-01-07T16:01:48.676Z,62.13
2023-01-07T16:04:30.126Z,62.15
2023-01-07T16:07:02.448Z,62.31
2023-01-07T16:09:35.102Z,62.56
2023-01-07T16:12:10.750Z,62.59
2023-01-07T16:14:42.807Z,62.75
2023-01-07T16:17:16.651Z,62.83
2023-01-07T16:19:48.780Z,63.03
2023-01-07T16:22:23.596Z,63.05
2023-01-07T16:24:55.694Z,63.25
2023-01-07T16:27:30.300Z,63.25
2023-01-07T16:30:02.606Z,63.44
2023-01-07T16:32:35.185Z,63.52
2023-01-07T16:35:21.771Z,63.51
2023-01-07T16:37:54.155Z,63.70
2023-01-07T16:40:29.087Z,63.85
2023-01-07T16:43:01.143Z,63.85
2023-01-07T16:45:34.784Z,63.96
2023-01-07T16:48:21.676Z,64.03
2023-01-07T16:50:55.268Z,63.98
2023-01-07T16:53:35.970Z,63.83
2023-01-07T16:56:17.166Z,63.92
2023-01-07T16:58:55.575Z,63.73
2023-01-07T17:01:35.839Z,63.64
2023-01-07T17:04:22.768Z,63.58
2023-01-07T17:06:55.454Z,63.39
2023-01-07T17:09:39.229Z,63.35
2023-01-07T17:12:29.243Z,63.38
2023-01-07T17:15:01.455Z,63.34
2023-01-07T17:17:34.780Z,63.44
2023-01-07T17:20:22.750Z,63.35
2023-01-07T17:22:54.832Z,63.52
2023-01-07T17:25:29.327Z,63.55
2023-01-07T17:28:12.281Z,63.59
2023-01-07T17:30:44.096Z,63.68
2023-01-07T17:33:18.215Z,63.90
2023-01-07T17:35:50.295Z,63.61
2023-01-07T17:38:22.594Z,63.58
2023-01-07T17:40:56.095Z,63.45
2023-01-07T17:43:34.879Z,63.52
2023-01-07T17:46:12.747Z,63.70
2023-01-07T17:48:44.885Z,63.68
2023-01-07T17:51:16.905Z,63.76
2023-01-07T17:53:51.055Z,63.89
2023-01-07T17:56:23.040Z,63.84
2023-01-07T17:58:56.204Z,63.91
2023-01-07T18:01:28.573Z,63.98
2023-01-07T18:04:00.766Z,64.17
2023-01-07T18:06:35.276Z,64.25
2023-01-07T18:09:08.832Z,64.32
2023-01-07T18:12:01.037Z,64.44
2023-01-07T18:14:33.110Z,64.37
2023-01-07T18:17:06.834Z,64.32
2023-01-07T18:19:40.011Z,64.44
2023-01-07T18:22:12.441Z,64.45
2023-01-07T18:24:44.388Z,64.49
2023-01-07T18:27:20.027Z,64.45
2023-01-07T18:29:52.001Z,64.40
2023-01-07T18:32:23.934Z,64.32
2023-01-07T18:34:55.976Z,64.26
2023-01-07T18:37:28.184Z,64.43
2023-01-07T18:40:01.839Z,64.43
2023-01-07T18:42:35.440Z,64.40
2023-01-07T18:45:08.627Z,64.50
2023-01-07T18:47:42.608Z,64.57
2023-01-07T18:50:15.841Z,64.66
2023-01-07T18:52:48.185Z,64.59
2023-01-07T18:55:21.162Z,64.69
2023-01-07T18:57:53.136Z,64.77
2023-01-07T19:00:25.181Z,64.73
2023-01-07T19:02:58.465Z,64.47
2023-01-07T19:05:31.404Z,64.58
2023-01-07T19:08:03.539Z,64.59
2023-01-07T19:10:35.683Z,64.70
2023-01-07T19:13:07.795Z,64.71
2023-01-07T19:15:41.230Z,64.79
2023-01-07T19:18:13.317Z,64.83
2023-01-07T19:20:45.652Z,64.97
2023-01-07T19:23:17.884Z,65.17
2023-01-07T19:25:58.374Z,65.02
2023-01-07T19:28:32.428Z,64.96
2023-01-07T19:31:09.348Z,64.96
2023-01-07T19:33:41.830Z,64.95
2023-01-07T19:36:17.605Z,65.01
2023-01-07T19:38:49.924Z,65.01
2023-01-07T19:41:23.357Z,65.04
2023-01-07T19:44:00.700Z,65.10
2023-01-07T19:46:34.383Z,65.14
2023-01-07T19:49:07.555Z,65.21
2023-01-07T19:51:41.533Z,65.34
2023-01-07T19:54:18.823Z,65.36
2023-01-07T19:56:50.864Z,65.34
2023-01-07T19:59:23.496Z,65.29
2023-01-07T20:01:54.909Z,65.25
2023-01-07T20:04:27.437Z,65.20
2023-01-07T20:06:58.768Z,64.99
2023-01-07T20:09:31.060Z,64.88
2023-01-07T20:12:02.453Z,64.38
2023-01-07T20:14:34.175Z,64.56
2023-01-07T20:17:06.480Z,64.27
2023-01-07T20:19:38.382Z,64.44
2023-01-07T20:22:11.052Z,64.56
2023-01-07T20:24:43.191Z,64.69
2023-01-07T20:27:15.216Z,64.79
2023-01-07T20:29:47.301Z,64.97
2023-01-07T20:32:20.012Z,64.93
2023-01-07T20:34:52.004Z,65.15
2023-01-07T20:37:25.762Z,65.29
2023-01-07T20:39:57.919Z,65.40
2023-01-07T20:42:31.548Z,65.54
2023-01-07T20:45:04.138Z,65.66
2023-01-07T20:47:36.243Z,65.57
2023-01-07T20:50:10.857Z,65.66
2023-01-07T20:52:43.948Z,65.76
2023-01-07T20:55:16.171Z,65.80
2023-01-07T20:57:48.146Z,65.82
2023-01-07T21:00:20.343Z,65.93
2023-01-07T21:02:52.620Z,66.09
2023-01-07T21:05:24.737Z,66.09
2023-01-07T21:07:56.748Z,66.16
2023-01-07T21:10:28.854Z,66.30
2023-01-07T21:13:00.933Z,66.16
2023-01-07T21:15:33.771Z,66.23
2023-01-07T21:18:05.981Z,66.22
2023-01-07T21:20:38.160Z,66.19
2023-01-07T21:23:10.766Z,66.17
2023-01-07T21:25:44.743Z,66.19
2023-01-07T21:28:17.098Z,66.11
2023-01-07T21:30:50.134Z,66.08
2023-01-07T21:33:22.315Z,66.11
2023-01-07T21:35:54.305Z,66.08
2023-01-07T21:38:26.301Z,66.08
2023-01-07T21:40:58.563Z,66.22
2023-01-07T21:43:32.119Z,66.30
2023-01-07T21:46:05.895Z,66.35
2023-01-07T21:48:40.104Z,66.30
2023-01-07T21:51:20.695Z,66.30
2023-01-07T21:53:56.056Z,66.27
2023-01-07T21:56:32.362Z,66.30
2023-01-07T21:59:04.520Z,66.28
2023-01-07T22:01:37.319Z,66.30
2023-01-07T22:04:09.534Z,66.30
2023-01-07T22:06:41.532Z,66.31
2023-01-07T22:09:15.894Z,66.35
2023-01-07T22:11:47.923Z,66.32
2023-01-07T22:14:20.740Z,66.35
2023-01-07T22:16:52.150Z,66.29
2023-01-07T22:19:25.548Z,66.43
2023-01-07T22:21:57.688Z,66.20
2023-01-07T22:24:30.159Z,66.21
2023-01-07T22:27:02.192Z,66.26
2023-01-07T22:29:34.354Z,66.29
2023-01-07T22:32:06.811Z,66.18
2023-01-07T22:34:38.974Z,66.15
2023-01-07T22:37:19.986Z,66.24
2023-01-07T22:39:57.908Z,66.18
2023-01-07T22:42:47.636Z,66.28
2023-01-07T22:45:22.568Z,66.17
2023-01-07T22:47:54.567Z,65.98
2023-01-07T22:50:26.485Z,65.73
2023-01-07T22:52:58.624Z,65.72
2023-01-07T22:55:30.997Z,65.56
2023-01-07T22:58:03.898Z,65.56
2023-01-07T23:00:53.745Z,65.44
2023-01-07T23:03:26.468Z,65.34
2023-01-07T23:05:58.541Z,65.25
2023-01-07T23:08:30.528Z,65.11
2023-01-07T23:11:02.465Z,65.14
2023-01-07T23:13:34.939Z,65.14
2023-01-07T23:16:07.846Z,65.03
2023-01-07T23:18:39.888Z,64.73
2023-01-07T23:21:12.145Z,64.34
2023-01-07T23:23:44.310Z,64.30
2023-01-07T23:26:17.079Z,64.28
2023-01-07T23:28:49.103Z,64.31
2023-01-07T23:31:21.336Z,64.35
2023-01-07T23:33:53.567Z,64.42
2023-01-07T23:36:25.514Z,64.48
2023-01-07T23:38:58.276Z,64.54
2023-01-07T23:41:31.197Z,64.68
2023-01-07T23:44:02.818Z,64.76
2023-01-07T23:46:34.554Z,64.82
2023-01-07T23:49:06.930Z,64.63
2023-01-07T23:51:41.247Z,64.63
2023-01-07T23:54:13.362Z,64.69
2023-01-07T23:56:45.422Z,64.79
2023-01-07T23:59:17.776Z,64.74
